Time;durP1;ratioP1;P1;durP2;ratioP2;P2;SDS_P1;SDS_P2;PMS_P1;PMS_P2;Temp;Humidity;BMP_temperature;BMP_pressure;BME280_temperature;BME280_humidity;BME280_pressure;Samples;Min_cycle;Max_cycle;Signal;HPM_P1;HPM_P2
2023/07/27 00:02:08;;;;;;;10.15;7.00;;;;;;;15.47;97.46;101000.00;5000029;23;20404;-82
2023/07/27 00:04:34;;;;;;;10.10;6.72;;;;;;;15.50;98.38;100998.91;4996942;28;20105;-84
2023/07/27 00:06:59;;;;;;;10.38;7.40;;;;;;;15.33;100.00;100976.84;4979294;28;20038;-84
2023/07/27 00:09:25;;;;;;;9.70;7.15;;;;;;;15.25;99.33;100963.66;4996615;28;20157;-82
2023/07/27 00:11:51;;;;;;;11.05;7.28;;;;;;;15.34;99.80;100986.34;4996512;28;20030;-82
2023/07/27 00:14:16;;;;;;;9.93;7.88;;;;;;;15.37;100.00;100991.28;4979405;28;20048;-83
2023/07/27 00:16:41;;;;;;;11.25;7.75;;;;;;;15.30;100.00;100987.50;4996397;28;20042;-83
2023/07/27 00:19:07;;;;;;;9.55;7.75;;;;;;;14.96;100.00;100928.75;4996503;28;20018;-84
2023/07/27 00:21:32;;;;;;;10.73;7.40;;;;;;;15.30;100.00;100991.91;4979156;28;20502;-85
2023/07/27 00:23:57;;;;;;;11.57;8.05;;;;;;;15.26;100.00;100983.53;4996563;28;20049;-83
2023/07/27 00:26:23;;;;;;;11.90;8.43;;;;;;;14.77;100.00;100901.59;4996397;28;20033;-83
2023/07/27 00:28:48;;;;;;;9.98;7.95;;;;;;;15.28;100.00;100980.78;4978302;28;20044;-84
2023/07/27 00:31:14;;;;;;;13.32;8.50;;;;;;;15.21;100.00;100978.66;4996249;28;20081;-84
2023/07/27 00:33:39;;;;;;;10.63;8.18;;;;;;;15.23;100.00;100977.72;4978348;28;20085;-83
2023/07/27 00:36:04;;;;;;;13.18;8.38;;;;;;;15.14;100.00;100959.31;4996307;28;20030;-84
2023/07/27 00:38:30;;;;;;;10.50;8.10;;;;;;;15.10;100.00;100960.50;4978934;28;20027;-84
2023/07/27 00:40:55;;;;;;;14.77;8.93;;;;;;;15.02;100.00;100951.66;4996163;28;20419;-84
2023/07/27 00:43:21;;;;;;;11.38;8.82;;;;;;;15.13;100.00;100970.66;4995923;28;20542;-83
2023/07/27 00:45:52;;;;;;;12.40;9.05;;;;;;;15.02;100.00;100946.44;4978926;28;20030;-83
2023/07/27 00:48:18;;;;;;;10.55;8.95;;;;;;;15.11;100.00;100958.72;4995851;28;20150;-84
2023/07/27 00:50:45;;;;;;;12.55;8.70;;;;;;;14.84;100.00;100917.53;4995876;28;20046;-85
2023/07/27 00:53:12;;;;;;;12.50;8.48;;;;;;;14.69;100.00;100887.56;4978722;28;20459;-83
2023/07/27 00:55:37;;;;;;;10.38;8.95;;;;;;;14.79;100.00;100898.88;4978331;28;20026;-83
2023/07/27 00:58:03;;;;;;;12.50;9.43;;;;;;;14.59;100.00;100870.09;4995487;28;20542;-84
2023/07/27 01:00:30;;;;;;;10.95;8.90;;;;;;;14.76;100.00;100896.53;4995892;28;20050;-83
2023/07/27 01:02:56;;;;;;;12.20;9.23;;;;;;;14.49;100.00;100855.34;4978153;28;20041;-84
2023/07/27 01:05:22;;;;;;;12.55;9.43;;;;;;;14.77;100.00;100900.78;4978467;28;20392;-86
2023/07/27 01:07:47;;;;;;;11.93;9.07;;;;;;;14.98;100.00;100932.03;4995736;28;20030;-83
2023/07/27 01:10:13;;;;;;;11.13;8.88;;;;;;;14.57;100.00;100861.59;4978006;28;20077;-83
2023/07/27 01:12:46;;;;;;;12.38;9.07;;;;;;;14.95;100.00;100921.91;4977848;28;20029;-83
2023/07/27 01:15:21;;;;;;;11.70;9.30;;;;;;;14.61;100.00;100869.97;4978301;28;20498;-83
2023/07/27 01:17:59;;;;;;;13.73;9.77;;;;;;;14.90;100.00;100912.66;4978032;28;20031;-83
2023/07/27 01:20:46;;;;;;;11.63;8.57;;;;;;;14.87;100.00;100899.94;4995348;28;20049;-84
2023/07/27 01:23:43;;;;;;;12.93;8.77;;;;;;;14.85;100.00;100903.59;4995169;28;20400;-83
2023/07/27 01:26:23;;;;;;;12.50;9.13;;;;;;;14.80;100.00;100903.13;4978032;28;20395;-84
2023/07/27 01:29:01;;;;;;;14.73;9.48;;;;;;;14.69;100.00;100882.38;4995189;28;20034;-85
2023/07/27 01:31:32;;;;;;;13.10;9.70;;;;;;;14.73;100.00;100901.97;4995054;28;20065;-84
2023/07/27 01:34:01;;;;;;;12.20;9.32;;;;;;;14.67;100.00;100879.06;4994935;28;20105;-83
2023/07/27 01:36:35;;;;;;;12.35;9.48;;;;;;;14.33;100.00;100814.13;4994895;28;20081;-84
2023/07/27 01:39:03;;;;;;;11.63;9.20;;;;;;;14.62;100.00;100872.44;4977770;28;20036;-84
2023/07/27 01:41:29;;;;;;;13.80;9.32;;;;;;;14.58;100.00;100868.44;4994992;28;20076;-83
2023/07/27 01:43:56;;;;;;;12.02;9.27;;;;;;;14.28;100.00;100821.47;4994763;28;20030;-84
2023/07/27 01:46:23;;;;;;;10.90;9.20;;;;;;;14.14;100.00;100803.53;4977126;28;20026;-84
2023/07/27 01:48:50;;;;;;;12.15;9.45;;;;;;;14.50;100.00;100859.59;4977476;28;20524;-84
2023/07/27 01:51:16;;;;;;;10.73;8.48;;;;;;;14.16;100.00;100794.69;4994650;28;20468;-85
2023/07/27 01:53:43;;;;;;;11.85;9.10;;;;;;;14.09;100.00;100790.91;4994417;28;20023;-85
2023/07/27 01:56:12;;;;;;;12.77;9.02;;;;;;;14.10;100.00;100789.13;4977140;28;20034;-85
2023/07/27 01:58:38;;;;;;;13.73;8.90;;;;;;;14.28;100.00;100814.50;4994627;28;20093;-85
2023/07/27 02:01:04;;;;;;;11.45;9.07;;;;;;;14.46;100.00;100835.63;4994923;28;20053;-85
2023/07/27 02:03:32;;;;;;;13.65;9.00;;;;;;;14.16;100.00;100786.91;4994507;28;20026;-87
2023/07/27 02:06:00;;;;;;;11.82;8.65;;;;;;;14.07;100.00;100772.03;4977196;28;20432;-86
2023/07/27 02:08:26;;;;;;;11.98;9.52;;;;;;;14.48;100.00;100827.72;4977035;28;20022;-85
2023/07/27 02:10:57;;;;;;;11.43;8.57;;;;;;;14.01;100.00;100764.72;4994248;28;20042;-84
2023/07/27 02:13:33;;;;;;;14.30;9.93;;;;;;;14.47;100.00;100831.28;4994507;28;20041;-83
2023/07/27 02:16:12;;;;;;;14.98;9.75;;;;;;;14.42;100.00;100830.75;4994243;28;20022;-83
2023/07/27 02:18:38;;;;;;;13.50;9.90;;;;;;;14.35;100.00;100817.41;4994329;28;20113;-83
2023/07/27 02:21:05;;;;;;;13.55;9.23;;;;;;;14.40;100.00;100825.69;4994217;28;20072;-89
2023/07/27 02:23:31;;;;;;;12.63;9.45;;;;;;;14.14;100.00;100778.38;4994276;28;20018;-83
2023/07/27 02:25:56;;;;;;;15.18;10.43;;;;;;;14.08;100.00;100755.50;4993504;28;20060;-84
2023/07/27 02:28:28;;;;;;;12.75;10.05;;;;;;;14.36;100.00;100787.91;4994258;28;20030;-84
2023/07/27 02:30:54;;;;;;;14.43;10.05;;;;;;;13.99;100.00;100732.88;4994008;28;20038;-84
2023/07/27 02:33:20;;;;;;;14.70;10.27;;;;;;;14.07;100.00;100741.69;4976731;28;20132;-86
2023/07/27 02:35:57;;;;;;;13.93;9.30;;;;;;;13.43;100.00;100632.53;5096132;23;20452;-85
2023/07/27 02:38:22;;;;;;;13.35;10.30;;;;;;;13.05;100.00;100581.03;4993946;28;20375;-85
2023/07/27 02:41:09;;;;;;;11.93;9.40;;;;;;;13.30;100.00;100611.13;4975645;28;20129;-84
2023/07/27 02:43:34;;;;;;;13.73;10.40;;;;;;;13.90;100.00;100705.84;4993880;28;20472;-86
2023/07/27 02:46:00;;;;;;;12.00;8.98;;;;;;;13.43;100.00;100622.16;4976008;28;20042;-87
2023/07/27 02:48:26;;;;;;;12.80;9.35;;;;;;;14.24;100.00;100758.53;4993551;28;20053;-84
2023/07/27 02:50:52;;;;;;;11.65;9.32;;;;;;;14.35;100.00;100762.88;4993555;28;20026;-84
2023/07/27 02:53:23;;;;;;;12.10;9.45;;;;;;;13.49;100.00;100634.66;4993601;28;20089;-84
2023/07/27 02:56:24;;;;;;;14.20;9.77;;;;;;;13.56;100.00;100640.19;4976181;28;20022;-86
2023/07/27 02:58:59;;;;;;;13.60;9.82;;;;;;;13.38;100.00;100607.94;4992633;28;20042;-85
2023/07/27 03:01:25;;;;;;;13.57;9.55;;;;;;;13.99;100.00;100706.91;4993471;28;20032;-85
2023/07/27 03:03:59;;;;;;;15.48;9.90;;;;;;;13.05;100.00;100549.91;4993217;28;20026;-83
2023/07/27 03:06:46;;;;;;;13.07;9.60;;;;;;;14.33;100.00;100743.97;4993556;28;20023;-82
2023/07/27 03:09:33;;;;;;;12.88;8.88;;;;;;;14.32;100.00;100740.56;4993759;28;20061;-85
2023/07/27 03:11:58;;;;;;;11.65;8.90;;;;;;;14.30;100.00;100737.28;4993370;28;20032;-84
2023/07/27 03:14:27;;;;;;;12.75;8.95;;;;;;;13.04;100.00;100529.31;4993455;28;20395;-85
2023/07/27 03:16:55;;;;;;;12.85;9.00;;;;;;;14.21;100.00;100722.41;4993165;28;20116;-84
2023/07/27 03:19:20;;;;;;;12.52;9.18;;;;;;;13.18;100.00;100561.00;4993209;28;20026;-87
2023/07/27 03:21:48;;;;;;;13.82;9.10;;;;;;;14.11;100.00;100712.88;4993444;28;20042;-84
2023/07/27 03:24:16;;;;;;;12.23;8.45;;;;;;;14.09;100.00;100707.00;4993360;28;20014;-85
2023/07/27 03:26:43;;;;;;;12.52;8.98;;;;;;;14.02;100.00;100697.09;4976196;28;20045;-85
2023/07/27 03:29:08;;;;;;;13.13;8.68;;;;;;;13.75;100.00;100649.94;4992870;28;20084;-87
2023/07/27 03:31:33;;;;;;;14.48;9.35;;;;;;;14.07;100.00;100686.34;4992679;28;20488;-82
2023/07/27 03:33:59;;;;;;;12.75;8.38;;;;;;;14.04;100.00;100669.22;4975759;28;20141;-84
2023/07/27 03:36:24;;;;;;;12.82;9.05;;;;;;;13.98;100.00;100648.97;4994039;28;20116;-85
2023/07/27 03:38:50;;;;;;;11.85;9.07;;;;;;;14.09;100.00;100653.28;4996925;28;20026;-82
2023/07/27 03:41:15;;;;;;;11.63;8.88;;;;;;;14.02;100.00;100631.34;4996971;28;20058;-86
2023/07/27 03:43:41;;;;;;;11.20;8.13;;;;;;;14.10;100.00;100647.16;4997065;28;20023;-84
2023/07/27 03:46:06;;;;;;;14.05;9.05;;;;;;;13.95;100.00;100622.41;4996945;28;20431;-87
2023/07/27 03:48:31;;;;;;;10.70;8.30;;;;;;;13.95;100.00;100633.59;4996042;28;20030;-84
2023/07/27 03:51:01;;;;;;;11.18;8.52;;;;;;;13.45;100.00;100546.81;4996943;28;20042;-82
2023/07/27 03:53:28;;;;;;;12.13;8.82;;;;;;;13.90;100.00;100619.38;4995784;28;20463;-82
2023/07/27 03:55:53;;;;;;;11.98;8.32;;;;;;;13.91;100.00;100602.84;4996791;28;20109;-87
2023/07/27 03:58:19;;;;;;;12.57;8.27;;;;;;;13.76;100.00;100572.00;4996806;28;20106;-83
2023/07/27 04:00:44;;;;;;;12.38;9.10;;;;;;;14.08;100.00;100625.69;4996473;28;20431;-83
2023/07/27 04:03:09;;;;;;;11.57;8.73;;;;;;;13.69;100.00;100560.44;4995601;28;20423;-83
2023/07/27 04:05:35;;;;;;;13.40;9.27;;;;;;;13.95;100.00;100602.47;4996813;28;20023;-82
2023/07/27 04:08:00;;;;;;;12.65;9.13;;;;;;;13.72;100.00;100562.78;4995315;28;20034;-83
2023/07/27 04:10:26;;;;;;;10.90;8.75;;;;;;;14.11;100.00;100625.41;4995365;28;20039;-82
2023/07/27 04:12:51;;;;;;;11.38;8.82;;;;;;;13.75;100.00;100566.91;4994836;28;20038;-82
2023/07/27 04:15:17;;;;;;;10.90;8.18;;;;;;;14.11;100.00;100624.59;4995198;28;20122;-84
2023/07/27 04:17:43;;;;;;;11.13;8.50;;;;;;;13.71;100.00;100550.75;4996522;28;20062;-83
2023/07/27 04:20:09;;;;;;;11.18;8.05;;;;;;;13.74;100.00;100544.50;4996433;28;20065;-83
2023/07/27 04:22:35;;;;;;;12.15;7.85;;;;;;;14.11;100.00;100611.63;4995565;28;20587;-83
2023/07/27 04:25:00;;;;;;;10.70;7.95;;;;;;;13.71;100.00;100531.78;4996513;28;20109;-82
2023/07/27 04:27:25;;;;;;;10.13;7.38;;;;;;;14.12;100.00;100592.50;4996295;28;20121;-84
2023/07/27 04:29:51;;;;;;;12.13;7.45;;;;;;;14.15;100.00;100581.84;4994872;28;20026;-83
2023/07/27 04:32:17;;;;;;;9.43;7.25;;;;;;;13.77;100.00;100515.72;4996128;28;20491;-82
2023/07/27 04:34:42;;;;;;;9.15;7.10;;;;;;;13.82;100.00;100534.31;4996768;28;20548;-82
2023/07/27 04:37:08;;;;;;;11.48;7.03;;;;;;;13.99;100.00;100567.53;5015796;28;20021;-81
2023/07/27 04:39:33;;;;;;;10.60;6.80;;;;;;;14.05;100.00;100566.19;5015688;28;20028;-84
2023/07/27 04:41:58;;;;;;;10.48;6.60;;;;;;;14.04;100.00;100564.53;5015472;28;20040;-83
2023/07/27 04:44:24;;;;;;;9.10;5.97;;;;;;;13.62;100.00;100491.81;5015465;28;20371;-83
2023/07/27 04:46:49;;;;;;;8.38;6.28;;;;;;;14.02;100.00;100566.44;5015473;28;20073;-82
2023/07/27 04:49:14;;;;;;;7.75;6.00;;;;;;;13.73;100.00;100509.94;5014744;28;20039;-82
2023/07/27 04:51:39;;;;;;;8.63;5.85;;;;;;;13.83;100.00;100511.78;5015316;28;20026;-84
2023/07/27 04:54:05;;;;;;;8.38;6.05;;;;;;;13.82;100.00;100510.97;5015382;28;20030;-82
2023/07/27 04:56:30;;;;;;;8.93;5.80;;;;;;;13.97;100.00;100529.66;5015442;28;20088;-83
2023/07/27 04:58:56;;;;;;;8.45;5.75;;;;;;;13.91;100.00;100523.19;5015217;28;20064;-83
2023/07/27 05:01:21;;;;;;;8.13;5.63;;;;;;;14.01;100.00;100525.84;5015263;28;20072;-84
2023/07/27 05:03:46;;;;;;;7.70;6.10;;;;;;;13.82;100.00;100502.34;5015144;28;20100;-85
2023/07/27 05:06:12;;;;;;;9.35;5.22;;;;;;;13.98;100.00;100521.75;4997492;28;20118;-83
2023/07/27 05:08:37;;;;;;;8.05;5.65;;;;;;;13.82;100.00;100492.78;4997534;28;20390;-84
2023/07/27 05:11:06;;;;;;;7.43;5.60;;;;;;;13.80;100.00;100492.09;4997974;28;20077;-84
2023/07/27 05:13:34;;;;;;;7.75;5.68;;;;;;;13.95;100.00;100514.19;4997840;28;20029;-83
2023/07/27 05:16:01;;;;;;;7.72;6.22;;;;;;;14.05;100.00;100512.47;5014911;28;20024;-84
2023/07/27 05:18:26;;;;;;;7.93;5.72;;;;;;;13.87;100.00;100471.66;5014925;28;20523;-84
2023/07/27 05:20:51;;;;;;;7.43;5.35;;;;;;;13.86;100.00;100465.63;5015063;28;20537;-84
2023/07/27 05:23:19;;;;;;;8.63;5.80;;;;;;;14.07;100.00;100502.00;4997369;28;20425;-83
2023/07/27 05:25:46;;;;;;;7.47;5.55;;;;;;;13.77;100.00;100449.06;5015130;28;20037;-84
2023/07/27 05:31:37;;;;;;;7.13;5.60;;;;;;;14.26;100.00;100503.91;4975744;28;20037;-83
2023/07/27 05:35:12;;;;;;;7.43;5.68;;;;;;;14.31;100.00;100507.72;4975790;28;20031;-82
2023/07/27 05:37:47;;;;;;;6.35;4.88;;;;;;;13.29;100.00;100334.59;4975421;28;20468;-83
2023/07/27 05:40:21;;;;;;;6.55;4.70;;;;;;;13.14;100.00;100305.50;4975764;28;20018;-83
2023/07/27 05:43:22;;;;;;;7.65;5.30;;;;;;;13.55;100.00;100360.94;4975516;28;20033;-83
2023/07/27 05:45:58;;;;;;;6.20;4.80;;;;;;;14.30;100.00;100468.91;4957352;28;20113;-83
2023/07/27 05:48:39;;;;;;;6.43;4.75;;;;;;;13.18;100.00;100280.16;4957651;28;20544;-84
2023/07/27 05:51:04;;;;;;;5.73;4.80;;;;;;;13.19;100.00;100285.25;4975227;28;20056;-83
2023/07/27 05:53:30;;;;;;;5.93;4.30;;;;;;;13.49;100.00;100322.56;4975411;28;20031;-83
2023/07/27 05:55:55;;;;;;;6.22;4.75;;;;;;;13.63;100.00;100321.41;4975047;28;20027;-84
2023/07/27 05:58:21;;;;;;;5.78;4.38;;;;;;;14.27;100.00;100419.81;4975169;28;20054;-82
2023/07/27 06:04:12;;;;;;;5.70;4.43;;;;;;;14.61;100.00;100488.75;4975303;28;20037;-83
2023/07/27 06:06:37;;;;;;;7.05;4.85;;;;;;;14.41;100.00;100452.41;4974855;28;20019;-82
2023/07/27 06:09:03;;;;;;;5.65;4.47;;;;;;;14.57;100.00;100471.81;4974956;28;20030;-83
2023/07/27 06:11:41;;;;;;;6.03;4.43;;;;;;;13.97;100.00;100377.31;4957617;28;20039;-82
2023/07/27 06:14:07;;;;;;;5.88;4.57;;;;;;;13.93;100.00;100355.16;4974968;28;20118;-83
2023/07/27 06:16:39;;;;;;;5.38;4.35;;;;;;;14.70;100.00;100468.16;4974862;28;20546;-83
2023/07/27 06:19:04;;;;;;;;;;;;;;;14.88;100.00;100477.78;4975084;28;20376;-82
2023/07/27 06:21:29;;;;;;;5.88;4.10;;;;;;;14.88;100.00;100472.59;4974433;28;19914;-85
2023/07/27 06:23:55;;;;;;;5.38;4.18;;;;;;;14.78;100.00;100452.72;4974717;28;20106;-81
2023/07/27 06:26:20;;;;;;;4.65;3.80;;;;;;;14.81;100.00;100462.84;4974500;28;20033;-82
2023/07/27 06:28:46;;;;;;;4.47;3.60;;;;;;;14.82;100.00;100457.50;4972705;28;20117;-81
2023/07/27 06:31:12;;;;;;;5.97;3.97;;;;;;;14.40;100.00;100381.44;4975289;28;20035;-80
2023/07/27 06:33:37;;;;;;;5.82;3.72;;;;;;;15.05;100.00;100462.50;4975204;28;20022;-81
2023/07/27 06:36:03;;;;;;;5.07;3.60;;;;;;;15.16;100.00;100452.78;4974195;28;20368;-81
2023/07/27 06:38:28;;;;;;;4.80;3.15;;;;;;;14.98;100.00;100417.19;4974170;28;20054;-81
2023/07/27 06:40:53;;;;;;;3.83;3.10;;;;;;;15.15;100.00;100435.56;4973886;28;20053;-81
2023/07/27 06:43:19;;;;;;;6.38;2.70;;;;;;;15.26;100.00;100447.59;4974472;28;20110;-80
2023/07/27 06:45:44;;;;;;;4.13;2.72;;;;;;;15.39;100.00;100461.16;4974463;28;20035;-81
2023/07/27 06:48:09;;;;;;;2.65;2.15;;;;;;;15.36;100.00;100450.22;4974292;28;20030;-81
2023/07/27 06:50:35;;;;;;;4.72;2.75;;;;;;;15.21;100.00;100432.38;4974176;28;20469;-82
2023/07/27 06:53:00;;;;;;;4.10;2.85;;;;;;;15.30;100.00;100432.53;4973829;28;20053;-82
2023/07/27 06:55:26;;;;;;;4.22;2.88;;;;;;;15.19;100.00;100416.09;4974284;28;20418;-84
2023/07/27 06:57:54;;;;;;;4.18;2.78;;;;;;;15.32;100.00;100446.22;4974001;28;20031;-82
2023/07/27 07:00:19;;;;;;;4.95;2.90;;;;;;;15.37;100.00;100459.66;4973843;28;20468;-86
2023/07/27 07:02:45;;;;;;;5.68;3.15;;;;;;;15.14;100.00;100425.25;4974164;28;20109;-84
2023/07/27 07:05:11;;;;;;;4.78;3.33;;;;;;;15.34;100.00;100450.34;4956412;28;20054;-84
2023/07/27 07:07:38;;;;;;;5.68;3.33;;;;;;;15.24;100.00;100405.31;4973852;28;20027;-83
2023/07/27 07:10:04;;;;;;;4.40;3.10;;;;;;;15.65;100.00;100458.88;4957237;28;22293;-85
2023/07/27 07:12:30;;;;;;;4.90;3.22;;;;;;;15.70;100.00;100454.06;4973894;28;20507;-84
2023/07/27 07:14:55;;;;;;;5.40;3.10;;;;;;;15.63;100.00;100439.97;4956332;28;20019;-83
2023/07/27 07:17:20;;;;;;;3.63;2.75;;;;;;;14.98;100.00;100336.59;4974137;28;20431;-83
2023/07/27 07:19:48;;;;;;;6.28;3.08;;;;;;;15.74;100.00;100452.84;4973922;28;20077;-81
2023/07/27 07:22:14;;;;;;;3.90;3.05;;;;;;;15.79;100.00;100449.81;4973796;28;20093;-82
2023/07/27 07:24:39;;;;;;;4.80;3.00;;;;;;;15.68;100.00;100424.75;4974034;28;20453;-83
2023/07/27 07:27:04;;;;;;;3.55;2.80;;;;;;;15.65;100.00;100419.81;4973984;28;20018;-83
2023/07/27 07:29:30;;;;;;;4.05;3.00;;;;;;;15.48;100.00;100381.44;4955413;28;20606;-83
2023/07/27 07:31:55;;;;;;;4.13;2.92;;;;;;;15.78;100.00;100422.13;4954605;29;20385;-83
2023/07/27 07:34:21;;;;;;;3.92;2.83;;;;;;;15.85;100.00;100433.63;4954698;29;20038;-85
2023/07/27 07:36:46;;;;;;;4.32;2.92;;;;;;;15.89;100.00;100427.16;4954467;29;20114;-86
2023/07/27 07:39:12;;;;;;;4.05;3.17;;;;;;;15.63;100.00;100387.06;4954354;29;20047;-84
2023/07/27 07:41:37;;;;;;;3.78;3.05;;;;;;;15.75;100.00;100405.00;4954609;29;20041;-84
2023/07/27 07:44:02;;;;;;;4.60;3.30;;;;;;;15.85;100.00;100420.59;4935356;29;20039;-83
2023/07/27 07:46:29;;;;;;;4.70;3.20;;;;;;;15.97;100.00;100435.09;4955189;29;20059;-84
2023/07/27 07:48:54;;;;;;;5.10;3.55;;;;;;;16.01;100.00;100428.63;4954523;29;20080;-83
2023/07/27 07:51:20;;;;;;;5.13;3.42;;;;;;;15.99;100.00;100416.72;4954109;29;20042;-85
2023/07/27 07:53:45;;;;;;;5.32;4.18;;;;;;;15.81;100.00;100385.38;4954220;29;20102;-84
2023/07/27 07:56:15;;;;;;;3.97;3.53;;;;;;;15.79;100.00;100369.09;4954532;29;20432;-83
2023/07/27 07:58:41;;;;;;;4.28;3.60;;;;;;;16.27;100.00;100422.81;4937140;29;20441;-82
2023/07/27 08:01:06;;;;;;;4.20;3.80;;;;;;;16.46;100.00;100416.69;4954471;29;20079;-82
2023/07/27 08:03:32;;;;;;;5.18;3.80;;;;;;;16.71;100.00;100423.84;4954260;29;20039;-90
2023/07/27 08:05:57;;;;;;;5.15;4.13;;;;;;;16.94;100.00;100420.84;4954111;29;20046;-84
2023/07/27 08:08:23;;;;;;;4.63;4.03;;;;;;;16.77;100.00;100363.31;4954138;29;20111;-84
2023/07/27 08:10:48;;;;;;;5.43;4.60;;;;;;;17.29;100.00;100420.03;4936735;29;20047;-85
2023/07/27 08:13:14;;;;;;;5.20;4.63;;;;;;;17.37;100.00;100422.72;4954468;29;20023;-82
2023/07/27 08:15:39;;;;;;;5.32;4.82;;;;;;;17.34;100.00;100425.63;4954062;29;20031;-82
2023/07/27 08:18:04;;;;;;;6.53;5.22;;;;;;;17.02;100.00;100387.03;4954217;29;20031;-83
2023/07/27 08:20:30;;;;;;;6.00;5.43;;;;;;;16.86;100.00;100387.69;4954378;29;20058;-83
2023/07/27 08:22:55;;;;;;;6.50;5.90;;;;;;;16.76;100.00;100373.88;4954194;28;20031;-84
2023/07/27 08:25:21;;;;;;;6.50;5.90;;;;;;;17.08;100.00;100415.94;4957390;29;20031;-82
2023/07/27 08:27:47;;;;;;;6.45;5.85;;;;;;;16.97;100.00;100379.63;4957379;28;20071;-83
2023/07/27 08:30:13;;;;;;;6.20;5.60;;;;;;;17.03;100.00;100363.41;4957530;29;20027;-83
2023/07/27 08:32:40;;;;;;;5.72;5.22;;;;;;;17.18;100.00;100380.16;4957503;29;20030;-83
2023/07/27 08:35:06;;;;;;;5.50;5.00;;;;;;;17.20;100.00;100351.28;4957804;29;20389;-84
2023/07/27 08:40:24;;;;;;;4.80;4.30;;;;;;;16.25;100.00;100216.31;4957716;29;20172;-84
2023/07/27 08:42:59;;;;;;;5.22;4.68;;;;;;;16.25;100.00;100217.13;4957323;29;20035;-86
2023/07/27 08:45:37;;;;;;;5.03;4.20;;;;;;;17.40;100.00;100410.22;4940302;29;20049;-89
2023/07/27 08:48:18;;;;;;;3.95;3.50;;;;;;;17.39;100.00;100408.53;4957587;29;20059;-92
2023/07/27 08:50:45;;;;;;;3.88;3.22;;;;;;;17.53;100.00;100403.75;4959503;29;20023;-87
2023/07/27 08:53:11;;;;;;;3.63;3.20;;;;;;;16.50;100.00;100212.13;4957636;29;20031;-89
2023/07/27 08:55:40;;;;;;;4.00;3.13;;;;;;;17.10;100.00;100278.31;4940605;29;20034;-84
2023/07/27 09:00:31;;;;;;;4.07;3.20;;;;;;;17.90;100.00;100323.41;5000511;23;20050;-85
2023/07/27 09:03:12;;;;;;;3.85;3.30;;;;;;;17.66;100.00;100299.72;4978265;28;20510;-89
2023/07/27 09:05:43;;;;;;;3.45;3.15;;;;;;;18.15;100.00;100409.72;4978735;28;20030;-84
2023/07/27 09:08:10;;;;;;;4.43;3.08;;;;;;;18.08;100.00;100414.75;4978268;28;20033;-85
2023/07/27 09:10:38;;;;;;;3.20;2.90;;;;;;;17.37;100.00;100311.31;4995518;28;20468;-84
2023/07/27 09:13:18;;;;;;;4.03;2.85;;;;;;;16.86;100.00;100234.63;4995492;28;20031;-86
2023/07/27 09:15:52;;;;;;;3.40;2.60;;;;;;;17.55;100.00;100339.97;4995444;28;20030;-84
2023/07/27 09:18:33;;;;;;;2.80;2.30;;;;;;;17.02;100.00;100222.69;4995463;28;20224;-84
2023/07/27 09:21:06;;;;;;;2.72;2.20;;;;;;;18.50;100.00;100408.75;4977840;28;20036;-84
2023/07/27 09:23:31;;;;;;;3.28;2.15;;;;;;;18.71;100.00;100406.56;4995028;28;20150;-81
2023/07/27 09:25:57;;;;;;;3.58;2.40;;;;;;;18.06;100.00;100288.69;4977809;28;20047;-84
2023/07/27 09:28:26;;;;;;;2.28;1.90;;;;;;;18.91;100.00;100404.47;4995184;28;20026;-83
2023/07/27 09:30:59;;;;;;;3.75;2.03;;;;;;;18.74;100.00;100380.09;4995043;28;20026;-85
2023/07/27 09:33:25;;;;;;;2.05;1.60;;;;;;;17.58;100.00;100211.72;4995082;28;20030;-85
2023/07/27 09:36:13;;;;;;;1.90;1.48;;;;;;;18.67;100.00;100404.41;4994908;28;20031;-86
2023/07/27 09:38:51;;;;;;;3.35;1.85;;;;;;;17.18;100.00;100213.16;4881403;29;20033;-83
2023/07/27 09:41:22;;;;;;;2.75;1.75;;;;;;;17.40;100.00;100268.41;4897155;29;20040;-84
2023/07/27 09:43:48;;;;;;;2.78;1.80;;;;;;;17.30;100.00;100231.16;4897286;29;20602;-84
2023/07/27 09:46:13;;;;;;;3.50;1.80;;;;;;;18.01;100.00;100325.75;4897074;29;20032;-84
2023/07/27 09:48:39;;;;;;;2.40;1.73;;;;;;;18.54;100.00;100400.44;4897026;29;20040;-77
2023/07/27 09:51:07;;;;;;;2.65;1.85;;;;;;;18.31;100.00;100363.59;5012481;23;20544;-83
2023/07/27 09:53:35;;;;;;;2.70;1.65;;;;;;;18.24;100.00;100377.44;5033812;28;20072;-85
2023/07/27 09:56:01;;;;;;;2.80;2.00;;;;;;;17.96;100.00;100340.22;5033921;28;20037;-84
2023/07/27 09:58:28;;;;;;;3.10;1.90;;;;;;;18.39;100.00;100406.44;5034047;28;20035;-84
2023/07/27 10:00:53;;;;;;;3.35;1.73;;;;;;;18.57;100.00;100409.75;5033907;28;20056;-85
2023/07/27 10:03:19;;;;;;;2.45;1.98;;;;;;;18.51;100.00;100385.06;5034266;28;20025;-85
2023/07/27 10:05:45;;;;;;;2.05;1.83;;;;;;;18.48;100.00;100385.34;5033532;28;20032;-85
2023/07/27 10:08:10;;;;;;;3.28;2.40;;;;;;;18.58;100.00;100408.75;5032068;28;20030;-83
2023/07/27 10:10:39;;;;;;;4.15;2.00;;;;;;;18.66;100.00;100410.63;5034189;28;20098;-85
2023/07/27 10:13:25;;;;;;;3.58;1.88;;;;;;;18.81;100.00;100409.03;5034062;28;20033;-82
2023/07/27 10:15:52;;;;;;;3.47;2.10;;;;;;;18.88;100.00;100384.69;5019830;28;20104;-86
2023/07/27 10:18:24;;;;;;;4.18;1.85;;;;;;;19.19;100.00;100405.84;5033288;28;20430;-83
2023/07/27 10:20:50;;;;;;;2.70;1.95;;;;;;;18.82;100.00;100337.44;5015576;28;20075;-81
2023/07/27 10:23:26;;;;;;;4.05;1.73;;;;;;;19.19;100.00;100403.22;5032028;28;20324;-81
2023/07/27 10:25:58;;;;;;;2.30;1.67;;;;;;;19.28;100.00;100408.47;5016560;28;20021;-81
2023/07/27 10:28:40;;;;;;;3.58;1.80;;;;;;;19.31;100.00;100414.19;5033495;28;20386;-81
2023/07/27 10:31:19;;;;;;;1.40;1.30;;;;;;;19.20;100.00;100402.22;5015579;28;20116;-81
2023/07/27 10:33:46;;;;;;;1.75;1.40;;;;;;;18.82;100.00;100355.75;5033205;28;20076;-83
2023/07/27 10:36:12;;;;;;;2.17;1.55;;;;;;;19.25;100.00;100411.38;5015794;28;20053;-82
2023/07/27 10:38:53;;;;;;;2.15;1.77;;;;;;;19.32;100.00;100415.00;5015753;28;20060;-82
2023/07/27 10:41:25;;;;;;;3.38;1.95;;;;;;;19.00;100.00;100342.53;5015501;28;20048;-83
2023/07/27 10:44:12;;;;;;;1.67;1.58;;;;;;;19.53;100.00;100409.25;5033150;28;20033;-81
2023/07/27 10:46:47;;;;;;;2.08;1.70;;;;;;;19.56;100.00;100414.19;5032201;28;20029;-83
2023/07/27 10:49:17;;;;;;;2.50;1.70;;;;;;;19.22;100.00;100359.38;5015200;28;20025;-83
2023/07/27 10:51:45;;;;;;;4.72;1.92;;;;;;;19.24;100.00;100344.31;5033188;28;20052;-83
2023/07/27 10:54:12;;;;;;;2.50;2.03;;;;;;;19.67;100.00;100412.09;5014777;28;20037;-82
2023/07/27 10:56:37;;;;;;;3.53;2.00;;;;;;;19.61;100.00;100411.91;5032419;28;20033;-83
2023/07/27 10:59:03;;;;;;;2.22;2.03;;;;;;;19.48;100.00;100415.00;5015506;28;20128;-83
2023/07/27 11:01:36;;;;;;;2.17;1.98;;;;;;;19.07;100.00;100386.16;5014348;28;20509;-85
2023/07/27 11:04:03;;;;;;;2.78;2.10;;;;;;;18.81;100.00;100382.88;5014978;28;20037;-84
2023/07/27 11:06:29;;;;;;;2.22;2.03;;;;;;;18.67;100.00;100366.00;5015273;28;20494;-84
2023/07/27 11:08:58;;;;;;;3.22;2.30;;;;;;;18.88;100.00;100382.09;5032779;28;20024;-84
2023/07/27 11:11:24;;;;;;;2.55;2.20;;;;;;;18.76;100.00;100375.50;5032529;28;20033;-83
2023/07/27 11:13:53;;;;;;;2.58;2.25;;;;;;;18.96;100.00;100406.59;5032601;28;20091;-84
2023/07/27 11:16:19;;;;;;;3.28;2.30;;;;;;;19.07;100.00;100401.06;5032660;28;20136;-83
2023/07/27 11:18:44;;;;;;;2.42;2.22;;;;;;;19.11;100.00;100399.78;5032745;28;20527;-83
2023/07/27 11:21:11;;;;;;;2.97;2.25;;;;;;;19.02;100.00;100385.84;5032984;28;20482;-84
2023/07/27 11:23:47;;;;;;;2.92;2.63;;;;;;;18.93;100.00;100342.34;5014747;28;20116;-84
2023/07/27 11:26:28;;;;;;;2.50;2.20;;;;;;;19.17;100.00;100336.28;5012463;28;20029;-83
2023/07/27 11:28:55;;;;;;;;;;;;;;;19.76;100.00;100400.59;5027334;28;20057;-85
2023/07/27 11:31:27;;;;;;;3.33;3.03;;;;;;;19.32;100.00;100352.97;5030997;28;19913;-84
2023/07/27 11:34:20;;;;;;;3.50;2.90;;;;;;;19.53;100.00;100404.84;5030754;28;20044;-86